Time,TemperatureF,DewpointF,PressureIn,WindDirection,WindDirectionDegrees,WindSpeedMPH,WindSpeedGustMPH,Humidity,HourlyPrecipIn,Conditions,Clouds,dailyrainin,SolarRadiationWatts/m^2,SoftwareType,DateUTC
2013-05-16 00:04:00,65.0,59.4,29.75,SW,225,4.0,4.0,82,-99.99,,,0.00,0.00,VWS V14.01,2013-05-16 04:04:00,
2013-05-16 00:09:00,64.0,58.7,29.75,WSW,248,4.0,4.0,83,-99.99,,,0.00,0.00,VWS V14.01,2013-05-16 04:09:00,
2013-05-16 00:14:00,64.0,58.7,29.75,SW,225,3.0,3.0,83,-99.99,,,0.00,0.00,VWS V14.01,2013-05-16 04:14:00,
2013-05-16 00:19:00,64.0,59.1,29.75,West,270,3.0,3.0,84,-99.99,,,0.00,0.00,VWS V14.01,2013-05-16 04:19:00,
2013-05-16 00:24:00,64.0,59.1,29.75,WSW,248,4.0,4.0,84,-99.99,,,0.00,0.00,VWS V14.01,2013-05-16 04:24:00,
2013-05-16 00:29:00,65.0,59.7,29.76,West,270,2.0,3.0,83,-99.99,,,0.00,0.00,VWS V14.01,2013-05-16 04:29:00,
2013-05-16 00:34:00,65.0,59.7,29.76,NNE,22,2.0,2.0,83,-99.99,,,0.00,0.00,VWS V14.01,2013-05-16 04:34:00,
2013-05-16 00:39:00,64.0,58.7,29.76,NE,45,4.0,4.0,83,-99.99,,,0.00,0.00,VWS V14.01,2013-05-16 04:39:00,
2013-05-16 00:44:00,64.0,59.4,29.76,NNE,22,3.0,3.0,85,-99.99,,,0.00,0.00,VWS V14.01,2013-05-16 04:44:00,
2013-05-16 00:49:00,63.0,58.8,29.76,NNE,22,3.0,3.0,86,-99.99,,,0.00,0.00,VWS V14.01,2013-05-16 04:49:00,
2013-05-16 00:54:00,63.0,59.4,29.76,NNE,22,5.0,5.0,88,-99.99,,,0.00,0.00,VWS V14.01,2013-05-16 04:54:00,
2013-05-16 00:59:00,62.0,58.7,29.76,NE,45,4.0,4.0,89,-99.99,,,0.00,0.00,VWS V14.01,2013-05-16 04:59:00,
2013-05-16 01:04:00,62.0,59.0,29.76,NE,45,2.0,3.0,90,-99.99,,,0.00,0.00,VWS V14.01,2013-05-16 05:04:00,
2013-05-16 01:09:00,62.0,59.3,29.76,NE,45,3.0,3.0,91,-99.99,,,0.00,0.00,VWS V14.01,2013-05-16 05:09:00,
2013-05-16 01:14:00,62.0,59.3,29.76,ENE,68,2.0,2.0,91,-99.99,,,0.00,0.00,VWS V14.01,2013-05-16 05:14:00,
2013-05-16 01:19:00,62.0,59.3,29.76,West,270,2.0,3.0,91,-99.99,,,0.00,0.00,VWS V14.01,2013-05-16 05:19:00,
2013-05-16 01:24:00,62.0,59.3,29.76,WNW,292,2.0,3.0,91,-99.99,,,0.00,0.00,VWS V14.01,2013-05-16 05:24:00,
2013-05-16 01:29:00,62.0,59.0,29.77,WNW,292,1.0,1.0,90,-99.99,,,0.00,0.00,VWS V14.01,2013-05-16 05:29:00,
2013-05-16 01:34:00,62.0,59.0,29.77,SE,135,2.0,2.0,90,-99.99,,,0.00,0.00,VWS V14.01,2013-05-16 05:34:00,
2013-05-16 01:39:00,62.0,59.0,29.76,SE,135,2.0,2.0,90,-99.99,,,0.00,0.00,VWS V14.01,2013-05-16 05:39:00,
2013-05-16 01:44:00,62.0,59.0,29.77,South,180,1.0,2.0,90,-99.99,,,0.00,0.00,VWS V14.01,2013-05-16 05:44:00,
2013-05-16 01:49:00,62.0,59.0,29.77,SE,135,2.0,2.0,90,-99.99,,,0.00,0.00,VWS V14.01,2013-05-16 05:49:00,
2013-05-16 01:54:00,62.0,59.3,29.76,East,90,1.0,1.0,91,-99.99,,,0.00,0.00,VWS V14.01,2013-05-16 05:54:00,
2013-05-16 01:59:00,62.0,59.3,29.76,East,90,1.0,1.0,91,-99.99,,,0.00,0.00,VWS V14.01,2013-05-16 05:59:00,
2013-05-16 02:04:00,62.0,59.3,29.76,East,90,1.0,2.0,91,-99.99,,,0.00,0.00,VWS V14.01,2013-05-16 06:04:00,
2013-05-16 02:09:00,61.0,58.4,29.76,WNW,292,3.0,4.0,91,-99.99,,,0.00,0.00,VWS V14.01,2013-05-16 06:09:00,
2013-05-16 02:14:00,61.0,58.7,29.76,WNW,292,1.0,1.0,92,-99.99,,,0.00,0.00,VWS V14.01,2013-05-16 06:14:00,
2013-05-16 02:20:00,61.0,58.7,29.76,SSW,202,2.0,2.0,92,-99.99,,,0.00,0.00,VWS V14.01,2013-05-16 06:20:00,
2013-05-16 02:25:00,61.0,58.7,29.75,WNW,292,4.0,4.0,92,-99.99,,,0.00,0.00,VWS V14.01,2013-05-16 06:25:00,
2013-05-16 02:30:00,61.0,58.7,29.75,North,0,0.0,1.0,92,-99.99,,,0.00,0.00,VWS V14.01,2013-05-16 06:30:00,
2013-05-16 02:35:00,60.0,57.7,29.75,SE,135,3.0,4.0,92,-99.99,,,0.00,0.00,VWS V14.01,2013-05-16 06:35:00,
2013-05-16 02:40:00,60.0,58.0,29.75,WNW,292,3.0,3.0,93,-99.99,,,0.00,0.00,VWS V14.01,2013-05-16 06:40:00,
2013-05-16 02:45:00,60.0,58.3,29.75,WSW,248,1.0,2.0,94,-99.99,,,0.00,0.00,VWS V14.01,2013-05-16 06:45:00,
2013-05-16 02:50:00,60.0,58.3,29.75,NE,45,2.0,4.0,94,-99.99,,,0.00,0.00,VWS V14.01,2013-05-16 06:50:00,
2013-05-16 02:55:00,60.0,58.3,29.75,NNE,22,0.0,0.0,94,-99.99,,,0.00,0.00,VWS V14.01,2013-05-16 06:55:00,
2013-05-16 03:00:00,60.0,58.3,29.75,SW,225,2.0,2.0,94,-99.99,,,0.00,0.00,VWS V14.01,2013-05-16 07:00:00,
2013-05-16 03:05:00,60.0,58.3,29.75,West,270,3.0,3.0,94,-99.99,,,0.00,0.00,VWS V14.01,2013-05-16 07:05:00,
2013-05-16 03:10:00,60.0,58.3,29.75,SW,225,2.0,2.0,94,-99.99,,,0.00,0.00,VWS V14.01,2013-05-16 07:10:00,
2013-05-16 03:15:00,60.0,58.6,29.75,SW,225,1.0,1.0,95,-99.99,,,0.00,0.00,VWS V14.01,2013-05-16 07:15:00,
2013-05-16 03:20:00,60.0,58.6,29.75,ENE,68,3.0,3.0,95,-99.99,,,0.00,0.00,VWS V14.01,2013-05-16 07:20:00,
2013-05-16 03:25:00,59.0,57.6,29.76,NE,45,2.0,3.0,95,-99.99,,,0.00,0.00,VWS V14.01,2013-05-16 07:25:00,
2013-05-16 03:30:00,59.0,57.6,29.75,NE,45,3.0,3.0,95,-99.99,,,0.00,0.00,VWS V14.01,2013-05-16 07:30:00,
2013-05-16 03:35:00,59.0,57.9,29.75,NE,45,3.0,3.0,96,-99.99,,,0.00,0.00,VWS V14.01,2013-05-16 07:35:00,
2013-05-16 03:40:00,59.0,58.2,29.75,NE,45,2.0,3.0,97,-99.99,,,0.00,0.00,VWS V14.01,2013-05-16 07:40:00,
2013-05-16 03:45:00,59.0,58.2,29.75,NNE,22,1.0,2.0,97,-99.99,,,0.00,0.00,VWS V14.01,2013-05-16 07:45:00,
2013-05-16 03:50:00,59.0,58.2,29.76,ENE,68,3.0,3.0,97,-99.99,,,0.00,0.00,VWS V14.01,2013-05-16 07:50:00,
2013-05-16 03:55:00,59.0,58.4,29.76,NE,45,2.0,2.0,98,-99.99,,,0.00,0.00,VWS V14.01,2013-05-16 07:55:00,
2013-05-16 04:00:00,59.0,58.4,29.75,NNE,22,0.0,1.0,98,-99.99,,,0.00,0.00,VWS V14.01,2013-05-16 08:00:00,
2013-05-16 04:05:00,59.0,58.4,29.75,ENE,68,2.0,3.0,98,-99.99,,,0.00,0.00,VWS V14.01,2013-05-16 08:05:00,
2013-05-16 04:10:00,59.0,58.4,29.75,NNE,22,2.0,2.0,98,-99.99,,,0.00,0.00,VWS V14.01,2013-05-16 08:10:00,
2013-05-16 04:15:00,58.0,57.7,29.75,NNE,22,2.0,2.0,99,-99.99,,,0.00,0.00,VWS V14.01,2013-05-16 08:15:00,
2013-05-16 04:20:00,58.0,57.7,29.75,NE,45,1.0,2.0,99,-99.99,,,0.00,0.00,VWS V14.01,2013-05-16 08:20:00,
2013-05-16 04:25:00,58.0,57.7,29.75,ESE,112,2.0,2.0,99,-99.99,,,0.00,0.00,VWS V14.01,2013-05-16 08:25:00,
2013-05-16 04:30:00,58.0,57.7,29.76,SW,225,2.0,3.0,99,-99.99,,,0.00,0.00,VWS V14.01,2013-05-16 08:30:00,
2013-05-16 04:35:00,58.0,57.7,29.76,West,270,4.0,5.0,99,-99.99,,,0.00,0.00,VWS V14.01,2013-05-16 08:35:00,
2013-05-16 04:40:00,58.0,57.7,29.75,WNW,292,4.0,4.0,99,-99.99,,,0.00,0.00,VWS V14.01,2013-05-16 08:40:00,
2013-05-16 04:45:00,58.0,57.7,29.76,East,90,3.0,5.0,99,-99.99,,,0.00,0.00,VWS V14.01,2013-05-16 08:45:00,
2013-05-16 04:50:00,58.0,57.7,29.76,NE,45,2.0,2.0,99,-99.99,,,0.00,0.00,VWS V14.01,2013-05-16 08:50:00,
2013-05-16 04:55:00,58.0,57.7,29.75,ENE,68,2.0,3.0,99,-99.99,,,0.00,0.00,VWS V14.01,2013-05-16 08:55:00,
2013-05-16 05:00:00,57.0,56.7,29.75,NE,45,2.0,3.0,99,-99.99,,,0.00,0.00,VWS V14.01,2013-05-16 09:00:00,
2013-05-16 05:05:00,57.0,56.7,29.75,NE,45,3.0,3.0,99,-99.99,,,0.00,0.00,VWS V14.01,2013-05-16 09:05:00,
2013-05-16 05:10:00,57.0,56.7,29.76,ESE,112,2.0,2.0,99,-99.99,,,0.00,0.00,VWS V14.01,2013-05-16 09:10:00,
2013-05-16 05:15:00,57.0,56.7,29.76,SE,135,0.0,1.0,99,-99.99,,,0.00,0.00,VWS V14.01,2013-05-16 09:15:00,
2013-05-16 05:20:00,57.0,56.7,29.76,SE,135,1.0,1.0,99,-99.99,,,0.00,0.00,VWS V14.01,2013-05-16 09:20:00,
2013-05-16 05:25:00,57.0,57.0,29.77,SW,225,1.0,2.0,100,-99.99,,,0.00,0.00,VWS V14.01,2013-05-16 09:25:00,
2013-05-16 05:30:00,57.0,57.0,29.77,SW,225,0.0,1.0,100,-99.99,,,0.00,0.00,VWS V14.01,2013-05-16 09:30:00,
2013-05-16 05:35:00,57.0,57.0,29.77,SSE,158,1.0,1.0,100,-99.99,,,0.00,0.00,VWS V14.01,2013-05-16 09:35:00,
2013-05-16 05:40:00,57.0,56.7,29.77,East,90,2.0,2.0,99,-99.99,,,0.00,10.00,VWS V14.01,2013-05-16 09:40:00,
2013-05-16 05:45:00,57.0,56.7,29.77,SE,135,2.0,2.0,99,-99.99,,,0.00,10.00,VWS V14.01,2013-05-16 09:45:00,
2013-05-16 05:50:00,57.0,57.0,29.78,SE,135,3.0,3.0,100,-99.99,,,0.00,10.00,VWS V14.01,2013-05-16 09:50:00,
2013-05-16 05:55:00,57.0,57.0,29.78,East,90,1.0,2.0,100,-99.99,,,0.00,20.00,VWS V14.01,2013-05-16 09:55:00,
2013-05-16 06:00:00,57.0,57.0,29.78,ESE,112,1.0,2.0,100,-99.99,,,0.00,20.00,VWS V14.01,2013-05-16 10:00:00,
2013-05-16 06:05:00,57.0,57.0,29.78,ENE,68,2.0,2.0,100,-99.99,,,0.00,30.00,VWS V14.01,2013-05-16 10:05:00,
2013-05-16 06:10:00,57.0,57.0,29.79,NE,45,2.0,2.0,100,-99.99,,,0.00,40.00,VWS V14.01,2013-05-16 10:10:00,
2013-05-16 06:15:00,57.0,57.0,29.79,ESE,112,2.0,3.0,100,-99.99,,,0.00,60.00,VWS V14.01,2013-05-16 10:15:00,
2013-05-16 06:20:00,57.0,57.0,29.79,East,90,3.0,3.0,100,-99.99,,,0.00,60.00,VWS V14.01,2013-05-16 10:20:00,
2013-05-16 06:25:00,57.0,57.0,29.79,SE,135,1.0,1.0,100,-99.99,,,0.00,90.00,VWS V14.01,2013-05-16 10:25:00,
2013-05-16 06:30:00,58.0,57.7,29.80,East,90,2.0,3.0,99,-99.99,,,0.00,90.00,VWS V14.01,2013-05-16 10:30:00,
2013-05-16 06:35:00,58.0,57.7,29.80,ESE,112,2.0,3.0,99,-99.99,,,0.00,70.00,VWS V14.01,2013-05-16 10:35:00,
2013-05-16 06:40:00,58.0,57.7,29.81,East,90,3.0,3.0,99,-99.99,,,0.00,70.00,VWS V14.01,2013-05-16 10:40:00,
2013-05-16 06:45:00,58.0,57.7,29.81,SE,135,0.0,0.0,99,-99.99,,,0.00,120.00,VWS V14.01,2013-05-16 10:45:00,
2013-05-16 06:50:00,58.0,57.7,29.81,ESE,112,0.0,0.0,99,-99.99,,,0.00,90.00,VWS V14.01,2013-05-16 10:50:00,
2013-05-16 06:55:00,58.0,57.4,29.81,ESE,112,2.0,3.0,98,-99.99,,,0.00,60.00,VWS V14.01,2013-05-16 10:55:00,
2013-05-16 07:00:00,58.0,57.2,29.81,SE,135,1.0,1.0,97,-99.99,,,0.00,60.00,VWS V14.01,2013-05-16 11:00:00,
2013-05-16 07:05:00,58.0,57.2,29.81,SW,225,3.0,3.0,97,-99.99,,,0.00,70.00,VWS V14.01,2013-05-16 11:05:00,
2013-05-16 07:10:00,58.0,57.2,29.81,SW,225,1.0,1.0,97,-99.99,,,0.00,80.00,VWS V14.01,2013-05-16 11:10:00,
2013-05-16 07:15:00,58.0,57.4,29.81,SE,135,1.0,1.0,98,-99.99,,,0.00,70.00,VWS V14.01,2013-05-16 11:15:00,
2013-05-16 07:20:00,58.0,57.4,29.81,ESE,112,1.0,1.0,98,-99.99,,,0.00,90.00,VWS V14.01,2013-05-16 11:20:00,
2013-05-16 07:25:00,58.0,57.4,29.81,SE,135,0.0,0.0,98,-99.99,,,0.00,110.00,VWS V14.01,2013-05-16 11:25:00,
2013-05-16 07:30:00,59.0,58.4,29.81,West,270,1.0,2.0,98,-99.99,,,0.00,110.00,VWS V14.01,2013-05-16 11:30:00,
2013-05-16 07:35:00,59.0,58.4,29.81,North,0,1.0,1.0,98,-99.99,,,0.00,110.00,VWS V14.01,2013-05-16 11:35:00,
2013-05-16 07:40:00,59.0,58.2,29.82,ESE,112,2.0,3.0,97,-99.99,,,0.00,120.00,VWS V14.01,2013-05-16 11:40:00,
2013-05-16 07:45:00,59.0,57.9,29.82,ESE,112,4.0,4.0,96,-99.99,,,0.00,120.00,VWS V14.01,2013-05-16 11:45:00,
2013-05-16 07:50:00,59.0,57.9,29.82,ESE,112,1.0,2.0,96,-99.99,,,0.00,140.00,VWS V14.01,2013-05-16 11:50:00,
2013-05-16 07:55:00,60.0,58.9,29.82,NNW,338,0.0,0.0,96,-99.99,,,0.00,190.00,VWS V14.01,2013-05-16 11:55:00,
2013-05-16 07:59:00,60.0,58.6,29.82,ESE,112,2.0,3.0,95,-99.99,,,0.00,160.00,VWS V14.01,2013-05-16 11:59:00,
2013-05-16 08:04:00,61.0,59.3,29.82,ESE,112,2.0,2.0,94,-99.99,,,0.00,240.00,VWS V14.01,2013-05-16 12:04:00,
2013-05-16 08:10:00,61.0,59.3,29.82,East,90,2.0,2.0,94,-99.99,,,0.00,220.00,VWS V14.01,2013-05-16 12:10:00,
2013-05-16 08:15:00,61.0,59.0,29.82,ESE,112,2.0,2.0,93,-99.99,,,0.00,210.00,VWS V14.01,2013-05-16 12:15:00,
2013-05-16 08:20:00,62.0,59.7,29.82,ESE,112,2.0,3.0,92,-99.99,,,0.00,250.00,VWS V14.01,2013-05-16 12:20:00,
2013-05-16 08:24:00,62.0,59.3,29.82,ESE,112,2.0,3.0,91,-99.99,,,0.00,210.00,VWS V14.01,2013-05-16 12:24:00,
2013-05-16 08:30:00,62.0,59.3,29.82,ESE,112,2.0,3.0,91,-99.99,,,0.00,210.00,VWS V14.01,2013-05-16 12:30:00,
2013-05-16 08:35:00,62.0,59.3,29.82,ENE,68,1.0,2.0,91,-99.99,,,0.00,220.00,VWS V14.01,2013-05-16 12:35:00,
2013-05-16 08:40:00,63.0,60.0,29.82,SSW,202,2.0,2.0,90,-99.99,,,0.00,200.00,VWS V14.01,2013-05-16 12:40:00,
2013-05-16 08:45:00,63.0,60.0,29.82,WSW,248,0.0,1.0,90,-99.99,,,0.00,250.00,VWS V14.01,2013-05-16 12:45:00,
2013-05-16 08:50:00,64.0,60.7,29.82,East,90,1.0,2.0,89,-99.99,,,0.00,230.00,VWS V14.01,2013-05-16 12:50:00,
2013-05-16 08:55:00,64.0,59.7,29.82,ENE,68,3.0,3.0,86,-99.99,,,0.00,240.00,VWS V14.01,2013-05-16 12:55:00,
2013-05-16 09:00:00,64.0,59.4,29.83,ENE,68,2.0,2.0,85,-99.99,,,0.00,260.00,VWS V14.01,2013-05-16 13:00:00,
2013-05-16 09:05:00,65.0,60.4,29.83,ENE,68,3.0,3.0,85,-99.99,,,0.00,250.00,VWS V14.01,2013-05-16 13:05:00,
2013-05-16 09:10:00,64.0,59.4,29.83,ENE,68,3.0,4.0,85,-99.99,,,0.00,380.00,VWS V14.01,2013-05-16 13:10:00,
2013-05-16 09:15:00,64.0,59.7,29.83,NE,45,3.0,4.0,86,-99.99,,,0.00,290.00,VWS V14.01,2013-05-16 13:15:00,
2013-05-16 09:20:00,65.0,60.7,29.83,ENE,68,4.0,5.0,86,-99.99,,,0.00,330.00,VWS V14.01,2013-05-16 13:20:00,
2013-05-16 09:25:00,65.0,60.4,29.82,NNE,22,4.0,5.0,85,-99.99,,,0.00,420.00,VWS V14.01,2013-05-16 13:25:00,
2013-05-16 09:30:00,66.0,61.7,29.83,NE,45,3.0,5.0,86,-99.99,,,0.00,410.00,VWS V14.01,2013-05-16 13:30:00,
2013-05-16 09:35:00,66.0,61.0,29.82,East,90,2.0,4.0,84,-99.99,,,0.00,500.00,VWS V14.01,2013-05-16 13:35:00,
2013-05-16 09:40:00,66.0,60.7,29.82,ENE,68,3.0,4.0,83,-99.99,,,0.00,380.00,VWS V14.01,2013-05-16 13:40:00,
2013-05-16 09:45:00,66.0,60.3,29.82,NE,45,3.0,3.0,82,-99.99,,,0.00,370.00,VWS V14.01,2013-05-16 13:45:00,
2013-05-16 09:50:00,67.0,61.3,29.82,NE,45,2.0,2.0,82,-99.99,,,0.00,520.00,VWS V14.01,2013-05-16 13:50:00,
2013-05-16 09:55:00,69.0,62.6,29.82,ESE,112,1.0,5.0,80,-99.99,,,0.00,570.00,VWS V14.01,2013-05-16 13:55:00,
2013-05-16 10:00:00,69.0,61.9,29.82,ENE,68,1.0,2.0,78,-99.99,,,0.00,580.00,VWS V14.01,2013-05-16 14:00:00,
2013-05-16 10:05:00,70.0,61.7,29.82,NE,45,3.0,3.0,75,-99.99,,,0.00,530.00,VWS V14.01,2013-05-16 14:05:00,
2013-05-16 10:10:00,71.0,61.5,29.82,East,90,2.0,3.0,72,-99.99,,,0.00,640.00,VWS V14.01,2013-05-16 14:10:00,
2013-05-16 10:15:00,70.0,60.2,29.82,ESE,112,2.0,3.0,71,-99.99,,,0.00,630.00,VWS V14.01,2013-05-16 14:15:00,
2013-05-16 10:20:00,70.0,59.8,29.82,SW,225,4.0,4.0,70,-99.99,,,0.00,550.00,VWS V14.01,2013-05-16 14:20:00,
2013-05-16 10:25:00,71.0,61.1,29.82,SSW,202,4.0,4.0,71,-99.99,,,0.00,490.00,VWS V14.01,2013-05-16 14:25:00,
2013-05-16 10:30:00,71.0,60.3,29.82,WSW,248,0.0,3.0,69,-99.99,,,0.00,530.00,VWS V14.01,2013-05-16 14:30:00,
2013-05-16 10:35:00,72.0,59.6,29.82,West,270,1.0,1.0,65,-99.99,,,0.00,650.00,VWS V14.01,2013-05-16 14:35:00,
2013-05-16 10:40:00,73.0,59.7,29.82,ENE,68,4.0,6.0,63,-99.99,,,0.00,580.00,VWS V14.01,2013-05-16 14:40:00,
2013-05-16 10:45:00,73.0,59.2,29.82,SSE,158,3.0,3.0,62,-99.99,,,0.00,660.00,VWS V14.01,2013-05-16 14:45:00,
2013-05-16 10:50:00,74.0,57.3,29.82,SSE,158,3.0,5.0,56,-99.99,,,0.00,670.00,VWS V14.01,2013-05-16 14:50:00,
2013-05-16 10:55:00,73.0,55.9,29.82,South,180,1.0,3.0,55,-99.99,,,0.00,680.00,VWS V14.01,2013-05-16 14:55:00,
2013-05-16 11:00:00,74.0,56.8,29.82,WSW,248,2.0,4.0,55,-99.99,,,0.00,690.00,VWS V14.01,2013-05-16 15:00:00,
2013-05-16 11:05:00,73.0,56.4,29.82,SW,225,1.0,3.0,56,-99.99,,,0.00,710.00,VWS V14.01,2013-05-16 15:05:00,
2013-05-16 11:10:00,74.0,56.8,29.82,NW,315,2.0,3.0,55,-99.99,,,0.00,710.00,VWS V14.01,2013-05-16 15:10:00,
2013-05-16 11:15:00,75.0,57.2,29.82,SW,225,2.0,4.0,54,-99.99,,,0.00,720.00,VWS V14.01,2013-05-16 15:15:00,
2013-05-16 11:20:00,75.0,57.2,29.82,SE,135,2.0,4.0,54,-99.99,,,0.00,720.00,VWS V14.01,2013-05-16 15:20:00,
2013-05-16 11:25:00,75.0,56.2,29.82,South,180,5.0,8.0,52,-99.99,,,0.00,740.00,VWS V14.01,2013-05-16 15:25:00,
2013-05-16 11:30:00,75.0,57.8,29.82,South,180,1.0,3.0,55,-99.99,,,0.00,720.00,VWS V14.01,2013-05-16 15:30:00,
2013-05-16 11:35:00,75.0,57.2,29.82,SSE,158,5.0,7.0,54,-99.99,,,0.00,740.00,VWS V14.01,2013-05-16 15:35:00,
2013-05-16 11:40:00,75.0,57.2,29.82,ESE,112,8.0,10.0,54,-99.99,,,0.00,740.00,VWS V14.01,2013-05-16 15:40:00,
2013-05-16 11:45:00,76.0,58.2,29.82,ESE,112,7.0,7.0,54,-99.99,,,0.00,720.00,VWS V14.01,2013-05-16 15:45:00,
2013-05-16 11:50:00,76.0,58.2,29.82,East,90,5.0,9.0,54,-99.99,,,0.00,760.00,VWS V14.01,2013-05-16 15:50:00,
2013-05-16 11:55:00,75.0,56.2,29.81,ESE,112,4.0,6.0,52,-99.99,,,0.00,770.00,VWS V14.01,2013-05-16 15:55:00,
2013-05-16 12:00:00,76.0,57.1,29.81,ESE,112,4.0,8.0,52,-99.99,,,0.00,770.00,VWS V14.01,2013-05-16 16:00:00,
2013-05-16 12:05:00,76.0,55.5,29.81,NE,45,4.0,7.0,49,-99.99,,,0.00,780.00,VWS V14.01,2013-05-16 16:05:00,
2013-05-16 12:10:00,77.0,55.2,29.81,NE,45,3.0,4.0,47,-99.99,,,0.00,760.00,VWS V14.01,2013-05-16 16:10:00,
2013-05-16 12:15:00,76.0,52.5,29.81,SW,225,9.0,13.0,44,-99.99,,,0.00,630.00,VWS V14.01,2013-05-16 16:15:00,
2013-05-16 12:20:00,76.0,53.2,29.81,SW,225,3.0,4.0,45,-99.99,,,0.00,730.00,VWS V14.01,2013-05-16 16:20:00,
2013-05-16 12:25:00,76.0,48.6,29.80,WSW,248,12.0,13.0,38,-99.99,,,0.00,700.00,VWS V14.01,2013-05-16 16:25:00,
2013-05-16 12:30:00,76.0,49.3,29.80,West,270,6.0,7.0,39,-99.99,,,0.00,760.00,VWS V14.01,2013-05-16 16:30:00,
2013-05-16 12:35:00,76.0,48.6,29.80,SSW,202,9.0,13.0,38,-99.99,,,0.00,740.00,VWS V14.01,2013-05-16 16:35:00,
2013-05-16 12:40:00,76.0,48.6,29.80,West,270,5.0,6.0,38,-99.99,,,0.00,770.00,VWS V14.01,2013-05-16 16:40:00,
2013-05-16 12:45:00,77.0,48.8,29.80,SSE,158,10.0,10.0,37,-99.99,,,0.00,760.00,VWS V14.01,2013-05-16 16:45:00,
2013-05-16 12:50:00,77.0,48.8,29.80,SW,225,11.0,14.0,37,-99.99,,,0.00,770.00,VWS V14.01,2013-05-16 16:50:00,
2013-05-16 12:55:00,77.0,49.5,29.80,SW,225,5.0,13.0,38,-99.99,,,0.00,760.00,VWS V14.01,2013-05-16 16:55:00,
2013-05-16 13:00:00,77.0,49.5,29.80,SW,225,12.0,15.0,38,-99.99,,,0.00,750.00,VWS V14.01,2013-05-16 17:00:00,
2013-05-16 13:05:00,77.0,49.5,29.80,SE,135,4.0,7.0,38,-99.99,,,0.00,750.00,VWS V14.01,2013-05-16 17:05:00,
2013-05-16 13:10:00,78.0,50.4,29.80,SSW,202,2.0,6.0,38,-99.99,,,0.00,760.00,VWS V14.01,2013-05-16 17:10:00,
2013-05-16 13:15:00,78.0,49.7,29.80,SW,225,10.0,14.0,37,-99.99,,,0.00,750.00,VWS V14.01,2013-05-16 17:15:00,
2013-05-16 13:20:00,78.0,48.9,29.80,WSW,248,15.0,19.0,36,-99.99,,,0.00,750.00,VWS V14.01,2013-05-16 17:20:00,
2013-05-16 13:25:00,78.0,48.9,29.80,West,270,17.0,25.0,36,-99.99,,,0.00,750.00,VWS V14.01,2013-05-16 17:25:00,
2013-05-16 13:30:00,78.0,48.2,29.80,West,270,25.0,25.0,35,-99.99,,,0.00,750.00,VWS V14.01,2013-05-16 17:30:00,
2013-05-16 13:35:00,78.0,48.9,29.80,WSW,248,10.0,11.0,36,-99.99,,,0.00,740.00,VWS V14.01,2013-05-16 17:35:00,
2013-05-16 13:40:00,78.0,48.9,29.80,West,270,12.0,13.0,36,-99.99,,,0.00,750.00,VWS V14.01,2013-05-16 17:40:00,
2013-05-16 13:45:00,79.0,49.8,29.80,SSW,202,13.0,13.0,36,-99.99,,,0.00,740.00,VWS V14.01,2013-05-16 17:45:00,
2013-05-16 13:50:00,79.0,49.8,29.79,SW,225,15.0,15.0,36,-99.99,,,0.00,750.00,VWS V14.01,2013-05-16 17:50:00,
2013-05-16 13:55:00,79.0,48.3,29.79,WSW,248,9.0,15.0,34,-99.99,,,0.00,770.00,VWS V14.01,2013-05-16 17:55:00,
2013-05-16 13:59:00,80.0,49.1,29.79,WNW,292,10.0,15.0,34,-99.99,,,0.00,690.00,VWS V14.01,2013-05-16 17:59:00,
2013-05-16 14:04:00,79.0,47.5,29.79,WNW,292,10.0,13.0,33,-99.99,,,0.00,830.00,VWS V14.01,2013-05-16 18:04:00,
2013-05-16 14:09:00,80.0,48.3,29.79,SSW,202,10.0,12.0,33,-99.99,,,0.00,830.00,VWS V14.01,2013-05-16 18:09:00,
2013-05-16 14:14:00,80.0,49.1,29.79,SE,135,10.0,11.0,34,-99.99,,,0.00,770.00,VWS V14.01,2013-05-16 18:14:00,
2013-05-16 14:19:00,80.0,49.1,29.79,SW,225,13.0,18.0,34,-99.99,,,0.00,790.00,VWS V14.01,2013-05-16 18:19:00,
2013-05-16 14:24:00,80.0,49.9,29.79,North,0,4.0,5.0,35,-99.99,,,0.00,820.00,VWS V14.01,2013-05-16 18:24:00,
2013-05-16 14:29:00,81.0,49.2,29.79,WSW,248,10.0,12.0,33,-99.99,,,0.00,890.00,VWS V14.01,2013-05-16 18:29:00,
2013-05-16 14:34:00,80.0,47.5,29.79,SW,225,10.0,14.0,32,-99.99,,,0.00,210.00,VWS V14.01,2013-05-16 18:34:00,
2013-05-16 14:39:00,80.0,48.3,29.78,West,270,7.0,8.0,33,-99.99,,,0.00,670.00,VWS V14.01,2013-05-16 18:39:00,
2013-05-16 14:44:00,80.0,47.5,29.78,WNW,292,7.0,11.0,32,-99.99,,,0.00,810.00,VWS V14.01,2013-05-16 18:44:00,
2013-05-16 14:49:00,81.0,47.5,29.79,South,180,3.0,13.0,31,-99.99,,,0.00,260.00,VWS V14.01,2013-05-16 18:49:00,
2013-05-16 14:54:00,81.0,47.5,29.78,West,270,19.0,19.0,31,-99.99,,,0.00,790.00,VWS V14.01,2013-05-16 18:54:00,
2013-05-16 14:59:00,81.0,47.5,29.78,SSW,202,12.0,16.0,31,-99.99,,,0.00,810.00,VWS V14.01,2013-05-16 18:59:00,
2013-05-16 15:04:00,81.0,45.8,29.78,SSW,202,16.0,16.0,29,-99.99,,,0.00,460.00,VWS V14.01,2013-05-16 19:04:00,
2013-05-16 15:09:00,81.0,46.7,29.78,SW,225,4.0,7.0,30,-99.99,,,0.00,370.00,VWS V14.01,2013-05-16 19:09:00,
2013-05-16 15:14:00,80.0,46.7,29.78,WSW,248,9.0,20.0,31,-99.99,,,0.00,660.00,VWS V14.01,2013-05-16 19:14:00,
2013-05-16 15:19:00,80.0,49.1,29.78,West,270,6.0,6.0,34,-99.99,,,0.00,220.00,VWS V14.01,2013-05-16 19:19:00,
2013-05-16 15:24:00,80.0,49.1,29.78,WNW,292,7.0,9.0,34,-99.99,,,0.00,700.00,VWS V14.01,2013-05-16 19:24:00,
2013-05-16 15:29:00,81.0,46.7,29.78,SW,225,5.0,6.0,30,-99.99,,,0.00,730.00,VWS V14.01,2013-05-16 19:29:00,
2013-05-16 15:34:00,81.0,44.9,29.78,WSW,248,15.0,16.0,28,-99.99,,,0.00,680.00,VWS V14.01,2013-05-16 19:34:00,
2013-05-16 15:39:00,81.0,44.9,29.78,WSW,248,9.0,11.0,28,-99.99,,,0.00,660.00,VWS V14.01,2013-05-16 19:39:00,
2013-05-16 15:44:00,81.0,44.9,29.78,WSW,248,13.0,15.0,28,-99.99,,,0.00,640.00,VWS V14.01,2013-05-16 19:44:00,
2013-05-16 15:49:00,82.0,43.8,29.78,SW,225,7.0,11.0,26,-99.99,,,0.00,620.00,VWS V14.01,2013-05-16 19:49:00,
2013-05-16 15:54:00,81.0,42.9,29.78,SW,225,10.0,12.0,26,-99.99,,,0.00,620.00,VWS V14.01,2013-05-16 19:54:00,
2013-05-16 15:59:00,82.0,44.8,29.78,SW,225,9.0,10.0,27,-99.99,,,0.00,630.00,VWS V14.01,2013-05-16 19:59:00,
2013-05-16 16:04:00,81.0,42.9,29.78,WSW,248,11.0,13.0,26,-99.99,,,0.00,140.00,VWS V14.01,2013-05-16 20:04:00,
2013-05-16 16:09:00,81.0,41.9,29.77,WNW,292,13.0,14.0,25,-99.99,,,0.00,590.00,VWS V14.01,2013-05-16 20:09:00,
2013-05-16 16:14:00,82.0,42.8,29.78,WSW,248,10.0,12.0,25,-99.99,,,0.00,380.00,VWS V14.01,2013-05-16 20:14:00,
2013-05-16 16:19:00,82.0,42.8,29.78,WNW,292,6.0,10.0,25,-99.99,,,0.00,540.00,VWS V14.01,2013-05-16 20:19:00,
2013-05-16 16:24:00,82.0,42.8,29.77,West,270,6.0,7.0,25,-99.99,,,0.00,120.00,VWS V14.01,2013-05-16 20:24:00,
2013-05-16 16:29:00,82.0,40.6,29.77,WSW,248,15.0,19.0,23,-99.99,,,0.00,540.00,VWS V14.01,2013-05-16 20:29:00,
2013-05-16 16:34:00,82.0,41.7,29.77,WSW,248,4.0,5.0,24,-99.99,,,0.00,520.00,VWS V14.01,2013-05-16 20:34:00,
2013-05-16 16:39:00,82.0,42.8,29.77,West,270,9.0,11.0,25,-99.99,,,0.00,490.00,VWS V14.01,2013-05-16 20:39:00,
2013-05-16 16:44:00,81.0,41.9,29.77,WSW,248,8.0,11.0,25,-99.99,,,0.00,500.00,VWS V14.01,2013-05-16 20:44:00,
2013-05-16 16:49:00,82.0,42.8,29.77,West,270,11.0,16.0,25,-99.99,,,0.00,350.00,VWS V14.01,2013-05-16 20:49:00,
2013-05-16 16:54:00,82.0,42.8,29.77,SSE,158,4.0,6.0,25,-99.99,,,0.00,480.00,VWS V14.01,2013-05-16 20:54:00,
2013-05-16 16:59:00,83.0,42.5,29.77,WSW,248,8.0,10.0,24,-99.99,,,0.00,420.00,VWS V14.01,2013-05-16 20:59:00,
2013-05-16 17:04:00,82.0,39.4,29.77,SSW,202,11.0,11.0,22,-99.99,,,0.00,460.00,VWS V14.01,2013-05-16 21:04:00,
2013-05-16 17:09:00,82.0,39.4,29.77,WSW,248,11.0,13.0,22,-99.99,,,0.00,440.00,VWS V14.01,2013-05-16 21:09:00,
2013-05-16 17:14:00,82.0,39.4,29.77,West,270,8.0,11.0,22,-99.99,,,0.00,450.00,VWS V14.01,2013-05-16 21:14:00,
2013-05-16 17:19:00,82.0,38.2,29.77,WSW,248,10.0,12.0,21,-99.99,,,0.00,420.00,VWS V14.01,2013-05-16 21:19:00,
2013-05-16 17:24:00,82.0,37.0,29.77,WSW,248,12.0,13.0,20,-99.99,,,0.00,400.00,VWS V14.01,2013-05-16 21:24:00,
2013-05-16 17:29:00,82.0,38.2,29.77,WSW,248,8.0,13.0,21,-99.99,,,0.00,380.00,VWS V14.01,2013-05-16 21:29:00,
2013-05-16 17:34:00,83.0,39.1,29.77,WSW,248,9.0,11.0,21,-99.99,,,0.00,370.00,VWS V14.01,2013-05-16 21:34:00,
2013-05-16 17:39:00,83.0,39.1,29.78,West,270,16.0,16.0,21,-99.99,,,0.00,350.00,VWS V14.01,2013-05-16 21:39:00,
2013-05-16 17:44:00,82.0,38.2,29.78,West,270,8.0,10.0,21,-99.99,,,0.00,340.00,VWS V14.01,2013-05-16 21:44:00,
2013-05-16 17:49:00,82.0,38.2,29.78,WSW,248,10.0,10.0,21,-99.99,,,0.00,330.00,VWS V14.01,2013-05-16 21:49:00,
2013-05-16 17:54:00,82.0,38.2,29.78,WSW,248,9.0,10.0,21,-99.99,,,0.00,320.00,VWS V14.01,2013-05-16 21:54:00,
2013-05-16 17:59:00,82.0,39.4,29.78,WSW,248,10.0,10.0,22,-99.99,,,0.00,300.00,VWS V14.01,2013-05-16 21:59:00,
2013-05-16 18:04:00,82.0,38.2,29.78,WSW,248,11.0,13.0,21,-99.99,,,0.00,290.00,VWS V14.01,2013-05-16 22:04:00,
2013-05-16 18:09:00,82.0,39.4,29.78,SW,225,11.0,14.0,22,-99.99,,,0.00,280.00,VWS V14.01,2013-05-16 22:09:00,
2013-05-16 18:14:00,82.0,39.4,29.78,SW,225,9.0,9.0,22,-99.99,,,0.00,270.00,VWS V14.01,2013-05-16 22:14:00,
2013-05-16 18:19:00,82.0,39.4,29.78,West,270,8.0,8.0,22,-99.99,,,0.00,260.00,VWS V14.01,2013-05-16 22:19:00,
2013-05-16 18:24:00,82.0,39.4,29.78,West,270,18.0,19.0,22,-99.99,,,0.00,250.00,VWS V14.01,2013-05-16 22:24:00,
2013-05-16 18:29:00,82.0,39.4,29.79,WSW,248,9.0,11.0,22,-99.99,,,0.00,240.00,VWS V14.01,2013-05-16 22:29:00,
2013-05-16 18:34:00,82.0,38.2,29.79,SW,225,11.0,13.0,21,-99.99,,,0.00,230.00,VWS V14.01,2013-05-16 22:34:00,
2013-05-16 18:39:00,82.0,38.2,29.79,WSW,248,12.0,15.0,21,-99.99,,,0.00,180.00,VWS V14.01,2013-05-16 22:39:00,
2013-05-16 18:44:00,81.0,37.4,29.79,West,270,15.0,15.0,21,-99.99,,,0.00,70.00,VWS V14.01,2013-05-16 22:44:00,
2013-05-16 18:49:00,81.0,37.4,29.79,WSW,248,14.0,15.0,21,-99.99,,,0.00,190.00,VWS V14.01,2013-05-16 22:49:00,
2013-05-16 18:54:00,81.0,38.6,29.79,WSW,248,8.0,9.0,22,-99.99,,,0.00,180.00,VWS V14.01,2013-05-16 22:54:00,
2013-05-16 18:59:00,81.0,38.6,29.79,West,270,9.0,9.0,22,-99.99,,,0.00,170.00,VWS V14.01,2013-05-16 22:59:00,
2013-05-16 19:04:00,81.0,38.6,29.80,WSW,248,10.0,11.0,22,-99.99,,,0.00,160.00,VWS V14.01,2013-05-16 23:04:00,
2013-05-16 19:09:00,81.0,38.6,29.80,WSW,248,9.0,11.0,22,-99.99,,,0.00,150.00,VWS V14.01,2013-05-16 23:09:00,
2013-05-16 19:14:00,81.0,38.6,29.80,WSW,248,8.0,8.0,22,-99.99,,,0.00,140.00,VWS V14.01,2013-05-16 23:14:00,
2013-05-16 19:19:00,80.0,37.8,29.81,West,270,11.0,12.0,22,-99.99,,,0.00,130.00,VWS V14.01,2013-05-16 23:19:00,
2013-05-16 19:24:00,80.0,37.8,29.81,SW,225,10.0,15.0,22,-99.99,,,0.00,120.00,VWS V14.01,2013-05-16 23:24:00,
2013-05-16 19:29:00,80.0,37.8,29.81,WSW,248,16.0,16.0,22,-99.99,,,0.00,110.00,VWS V14.01,2013-05-16 23:29:00,
2013-05-16 19:34:00,80.0,37.8,29.81,West,270,10.0,15.0,22,-99.99,,,0.00,100.00,VWS V14.01,2013-05-16 23:34:00,
2013-05-16 19:39:00,80.0,37.8,29.81,WSW,248,13.0,19.0,22,-99.99,,,0.00,90.00,VWS V14.01,2013-05-16 23:39:00,
2013-05-16 19:44:00,79.0,37.0,29.81,WSW,248,15.0,19.0,22,-99.99,,,0.00,80.00,VWS V14.01,2013-05-16 23:44:00,
2013-05-16 19:49:00,79.0,37.0,29.82,WSW,248,16.0,16.0,22,-99.99,,,0.00,70.00,VWS V14.01,2013-05-16 23:49:00,
2013-05-16 19:54:00,79.0,37.0,29.82,WSW,248,8.0,13.0,22,-99.99,,,0.00,50.00,VWS V14.01,2013-05-16 23:54:00,
2013-05-16 19:59:00,79.0,38.1,29.82,WSW,248,11.0,15.0,23,-99.99,,,0.00,20.00,VWS V14.01,2013-05-16 23:59:00,
2013-05-16 20:04:00,78.0,37.2,29.82,West,270,12.0,13.0,23,-99.99,,,0.00,10.00,VWS V14.01,2013-05-17 00:04:00,
2013-05-16 20:09:00,78.0,37.2,29.82,WSW,248,7.0,15.0,23,-99.99,,,0.00,10.00,VWS V14.01,2013-05-17 00:09:00,
2013-05-16 20:14:00,78.0,38.3,29.83,WSW,248,6.0,10.0,24,-99.99,,,0.00,10.00,VWS V14.01,2013-05-17 00:14:00,
2013-05-16 20:19:00,77.0,37.5,29.83,WSW,248,7.0,9.0,24,-99.99,,,0.00,10.00,VWS V14.01,2013-05-17 00:19:00,
2013-05-16 20:24:00,77.0,38.5,29.83,WSW,248,9.0,10.0,25,-99.99,,,0.00,0.00,VWS V14.01,2013-05-17 00:24:00,
2013-05-16 20:29:00,77.0,38.5,29.83,West,270,7.0,7.0,25,-99.99,,,0.00,0.00,VWS V14.01,2013-05-17 00:29:00,
2013-05-16 20:34:00,77.0,38.5,29.83,WSW,248,10.0,17.0,25,-99.99,,,0.00,0.00,VWS V14.01,2013-05-17 00:34:00,
2013-05-16 20:39:00,77.0,38.5,29.84,WSW,248,10.0,13.0,25,-99.99,,,0.00,0.00,VWS V14.01,2013-05-17 00:39:00,
2013-05-16 20:44:00,76.0,37.7,29.84,West,270,12.0,13.0,25,-99.99,,,0.00,0.00,VWS V14.01,2013-05-17 00:44:00,
2013-05-16 20:49:00,76.0,37.7,29.84,WSW,248,10.0,11.0,25,-99.99,,,0.00,0.00,VWS V14.01,2013-05-17 00:49:00,
2013-05-16 20:54:00,76.0,37.7,29.84,West,270,12.0,14.0,25,-99.99,,,0.00,0.00,VWS V14.01,2013-05-17 00:54:00,
2013-05-16 20:59:00,76.0,38.7,29.85,WSW,248,7.0,11.0,26,-99.99,,,0.00,0.00,VWS V14.01,2013-05-17 00:59:00,
2013-05-16 21:04:00,75.0,37.8,29.85,SW,225,9.0,12.0,26,-99.99,,,0.00,0.00,VWS V14.01,2013-05-17 01:04:00,
2013-05-16 21:09:00,75.0,37.8,29.86,WSW,248,9.0,13.0,26,-99.99,,,0.00,0.00,VWS V14.01,2013-05-17 01:09:00,
2013-05-16 21:14:00,75.0,37.8,29.86,WSW,248,10.0,12.0,26,-99.99,,,0.00,0.00,VWS V14.01,2013-05-17 01:14:00,
2013-05-16 21:19:00,75.0,37.8,29.86,West,270,7.0,13.0,26,-99.99,,,0.00,0.00,VWS V14.01,2013-05-17 01:19:00,
2013-05-16 21:24:00,75.0,38.8,29.87,WSW,248,11.0,12.0,27,-99.99,,,0.00,0.00,VWS V14.01,2013-05-17 01:24:00,
2013-05-16 21:29:00,74.0,37.9,29.87,SW,225,6.0,13.0,27,-99.99,,,0.00,0.00,VWS V14.01,2013-05-17 01:29:00,
2013-05-16 21:34:00,74.0,37.9,29.87,SSW,202,5.0,5.0,27,-99.99,,,0.00,0.00,VWS V14.01,2013-05-17 01:34:00,
2013-05-16 21:39:00,74.0,38.9,29.87,SW,225,8.0,9.0,28,-99.99,,,0.00,0.00,VWS V14.01,2013-05-17 01:39:00,
2013-05-16 21:44:00,74.0,38.9,29.88,WSW,248,8.0,10.0,28,-99.99,,,0.00,0.00,VWS V14.01,2013-05-17 01:44:00,
2013-05-16 21:49:00,74.0,38.9,29.88,WSW,248,13.0,13.0,28,-99.99,,,0.00,0.00,VWS V14.01,2013-05-17 01:49:00,
2013-05-16 21:54:00,73.0,38.0,29.88,WSW,248,7.0,10.0,28,-99.99,,,0.00,0.00,VWS V14.01,2013-05-17 01:54:00,
2013-05-16 21:59:00,73.0,38.9,29.88,WSW,248,9.0,10.0,29,-99.99,,,0.00,0.00,VWS V14.01,2013-05-17 01:59:00,
2013-05-16 22:04:00,73.0,38.9,29.88,WSW,248,11.0,13.0,29,-99.99,,,0.00,0.00,VWS V14.01,2013-05-17 02:04:00,
2013-05-16 22:09:00,73.0,38.9,29.89,WSW,248,8.0,11.0,29,-99.99,,,0.00,0.00,VWS V14.01,2013-05-17 02:09:00,
2013-05-16 22:14:00,73.0,38.9,29.89,WSW,248,10.0,13.0,29,-99.99,,,0.00,0.00,VWS V14.01,2013-05-17 02:14:00,
2013-05-16 22:19:00,72.0,38.9,29.89,West,270,9.0,11.0,30,-99.99,,,0.00,0.00,VWS V14.01,2013-05-17 02:19:00,
2013-05-16 22:24:00,72.0,38.9,29.89,WSW,248,9.0,12.0,30,-99.99,,,0.00,0.00,VWS V14.01,2013-05-17 02:24:00,
2013-05-16 22:29:00,72.0,38.9,29.89,SW,225,9.0,12.0,30,-99.99,,,0.00,0.00,VWS V14.01,2013-05-17 02:29:00,
2013-05-16 22:34:00,72.0,38.9,29.90,SW,225,10.0,12.0,30,-99.99,,,0.00,0.00,VWS V14.01,2013-05-17 02:34:00,
2013-05-16 22:39:00,72.0,39.7,29.90,WSW,248,12.0,14.0,31,-99.99,,,0.00,0.00,VWS V14.01,2013-05-17 02:39:00,
2013-05-16 22:44:00,71.0,38.9,29.90,WSW,248,9.0,12.0,31,-99.99,,,0.00,0.00,VWS V14.01,2013-05-17 02:44:00,
2013-05-16 22:49:00,71.0,38.9,29.90,SW,225,10.0,14.0,31,-99.99,,,0.00,0.00,VWS V14.01,2013-05-17 02:49:00,
2013-05-16 22:54:00,71.0,38.9,29.90,SW,225,10.0,10.0,31,-99.99,,,0.00,0.00,VWS V14.01,2013-05-17 02:54:00,
2013-05-16 22:56:00,68.0,40.1,29.93,WSW,248,7.0,8.0,36,-99.99,,,0.00,0.00,VWS V14.01,2013-05-17 02:56:00,
2013-05-16 22:57:00,68.0,40.1,29.93,WSW,248,8.0,10.0,36,-99.99,,,0.00,0.00,VWS V14.01,2013-05-17 02:57:00,
2013-05-16 22:58:00,68.0,40.1,29.93,WSW,248,5.0,8.0,36,-99.99,,,0.00,0.00,VWS V14.01,2013-05-17 02:58:00,
2013-05-16 22:59:00,71.0,38.9,29.90,SW,225,8.0,14.0,31,-99.99,,,0.00,0.00,VWS V14.01,2013-05-17 02:59:00,
2013-05-16 23:00:00,68.0,40.8,29.93,WSW,248,5.0,8.0,37,-99.99,,,0.00,0.00,VWS V14.01,2013-05-17 03:00:00,
2013-05-16 23:01:00,68.0,40.8,29.93,WSW,248,7.0,7.0,37,-99.99,,,0.00,0.00,VWS V14.01,2013-05-17 03:01:00,
2013-05-16 23:02:00,68.0,40.8,29.93,WSW,248,7.0,7.0,37,-99.99,,,0.00,0.00,VWS V14.01,2013-05-17 03:02:00,
2013-05-16 23:03:00,68.0,40.8,29.93,WSW,248,7.0,7.0,37,-99.99,,,0.00,0.00,VWS V14.01,2013-05-17 03:03:00,
2013-05-16 23:04:00,71.0,38.9,29.90,SW,225,7.0,13.0,31,-99.99,,,0.00,0.00,VWS V14.01,2013-05-17 03:04:00,
2013-05-16 23:09:00,71.0,39.7,29.91,SW,225,6.0,8.0,32,-99.99,,,0.00,0.00,VWS V14.01,2013-05-17 03:09:00,
2013-05-16 23:14:00,70.0,39.6,29.91,WSW,248,4.0,5.0,33,-99.99,,,0.00,0.00,VWS V14.01,2013-05-17 03:14:00,
2013-05-16 23:19:00,70.0,39.6,29.91,WSW,248,11.0,11.0,33,-99.99,,,0.00,0.00,VWS V14.01,2013-05-17 03:19:00,
2013-05-16 23:24:00,70.0,40.4,29.92,WSW,248,5.0,8.0,34,-99.99,,,0.00,0.00,VWS V14.01,2013-05-17 03:24:00,
2013-05-16 23:29:00,70.0,40.4,29.92,WSW,248,8.0,10.0,34,-99.99,,,0.00,0.00,VWS V14.01,2013-05-17 03:29:00,
2013-05-16 23:34:00,69.0,39.5,29.92,WSW,248,9.0,10.0,34,-99.99,,,0.00,0.00,VWS V14.01,2013-05-17 03:34:00,
2013-05-16 23:39:00,69.0,40.2,29.92,WSW,248,8.0,12.0,35,-99.99,,,0.00,0.00,VWS V14.01,2013-05-17 03:39:00,
2013-05-16 23:44:00,69.0,40.2,29.92,WSW,248,6.0,12.0,35,-99.99,,,0.00,0.00,VWS V14.01,2013-05-17 03:44:00,
2013-05-16 23:49:00,69.0,41.0,29.92,WSW,248,10.0,11.0,36,-99.99,,,0.00,0.00,VWS V14.01,2013-05-17 03:49:00,
2013-05-16 23:54:00,68.0,40.1,29.92,WSW,248,6.0,10.0,36,-99.99,,,0.00,0.00,VWS V14.01,2013-05-17 03:54:00,
2013-05-16 23:59:00,68.0,40.1,29.93,SW,225,7.0,9.0,36,-99.99,,,0.00,0.00,VWS V14.01,2013-05-17 03:59:00,